YJF weather

Fort Liard Airport
Fort Liard, Northwest Territories, Canada

Public forecast

Using degrees Celsius for public forecast. Weather courtesy of forecast.io.

Current aviation weather report (METAR) for Fort Liard Airport

Report is more than 6 hours old.

Retrieved 2020/04/03 22:00 UTC (23 hours ago):

CYJF 032200Z 02006KT 12SM SCT044 OVC090 M08/M17 A3002 RMK SC3AS5 S00 AFT 12Z 0/LAST STFD OBS/NXT 061400Z SLP189

Closest aviation forecast (TAF) to Fort Liard Airport

Closest forecast is Fort Nelson Airport, 88.1 nm (163.2 km) SSE. Retrieved 2020/04/04 19:42 UTC (1 hour ago):

TAF CYYE 041838Z 0419/0507 VRB03KT P6SM FEW010 BKN080 TEMPO 0419/0507 6SM -SN BKN010 BKN060 RMK NXT FCST BY 050100Z